Time;durP1;ratioP1;P1;durP2;ratioP2;P2;SDS_P1;SDS_P2;PMS_P1;PMS_P2;Temp;Humidity;BMP_temperature;BMP_pressure;BME280_temperature;BME280_humidity;BME280_pressure;Samples;Min_cycle;Max_cycle;Signal;HPM_P1;HPM_P2
2023/06/05 00:01:37;;;;;;;5.93;4.73;;;25.60;34.30;;;;;;5018794;28;20194;-47
2023/06/05 00:04:04;;;;;;;6.20;4.73;;;25.60;34.40;;;;;;5017323;28;20189;-47
2023/06/05 00:06:30;;;;;;;7.17;4.97;;;25.50;34.50;;;;;;5028392;28;20192;-47
2023/06/05 00:08:57;;;;;;;7.70;4.87;;;25.60;34.30;;;;;;5025284;28;20520;-49
2023/06/05 00:11:22;;;;;;;7.17;5.03;;;25.50;34.40;;;;;;5027368;28;20852;-47
2023/06/05 00:13:49;;;;;;;6.03;5.13;;;25.50;34.40;;;;;;5018141;28;20440;-47
2023/06/05 00:16:15;;;;;;;5.93;5.40;;;25.50;34.40;;;;;;5021374;28;20722;-49
2023/06/05 00:18:42;;;;;;;8.60;6.07;;;25.50;34.60;;;;;;5023712;28;20881;-50
2023/06/05 00:21:08;;;;;;;5.77;5.23;;;25.50;34.60;;;;;;5020093;28;21097;-51
2023/06/05 00:23:34;;;;;;;5.40;4.67;;;25.50;34.60;;;;;;5027828;28;20451;-49
2023/06/05 00:25:59;;;;;;;5.00;4.20;;;25.40;34.80;;;;;;5026574;28;20201;-52
2023/06/05 00:28:25;;;;;;;9.77;5.20;;;25.30;34.90;;;;;;5020577;28;20198;-51
2023/06/05 00:30:51;;;;;;;4.90;4.33;;;25.30;35.10;;;;;;5020174;28;20204;-47
2023/06/05 00:33:16;;;;;;;4.57;4.17;;;25.20;35.10;;;;;;5018630;28;20548;-48
2023/06/05 00:35:43;;;;;;;6.23;4.80;;;25.30;35.00;;;;;;5010781;28;20224;-49
2023/06/05 00:38:08;;;;;;;9.20;5.90;;;25.30;34.90;;;;;;5029532;28;20193;-46
2023/06/05 00:40:34;;;;;;;5.80;4.27;;;25.30;35.10;;;;;;5028780;28;21042;-48
2023/06/05 00:43:00;;;;;;;6.10;4.63;;;25.30;34.90;;;;;;5026044;28;20330;-49
2023/06/05 00:45:25;;;;;;;4.70;4.00;;;25.20;34.90;;;;;;5022434;28;20192;-51
2023/06/05 00:47:51;;;;;;;6.20;4.43;;;25.10;35.10;;;;;;5014178;28;20436;-49
2023/06/05 00:50:21;;;;;;;3.93;3.53;;;25.10;35.10;;;;;;5015556;28;20201;-48
2023/06/05 00:52:47;;;;;;;5.27;4.53;;;25.10;35.00;;;;;;5015157;28;20513;-50
2023/06/05 00:55:13;;;;;;;3.80;3.23;;;25.10;35.10;;;;;;5020798;28;20978;-49
2023/06/05 00:57:39;;;;;;;7.50;4.23;;;25.10;35.20;;;;;;5024102;28;20488;-50
2023/06/05 01:00:12;;;;;;;3.80;3.43;;;25.10;35.20;;;;;;5024635;28;20189;-46
2023/06/05 01:02:38;;;;;;;4.47;4.00;;;25.00;35.40;;;;;;5015627;28;20436;-46
2023/06/05 01:05:04;;;;;;;8.40;3.70;;;25.00;35.50;;;;;;5020871;28;20889;-48
2023/06/05 01:07:32;;;;;;;4.80;3.60;;;25.00;35.70;;;;;;5028319;28;20527;-47
2023/06/05 01:10:03;;;;;;;4.20;3.80;;;25.00;35.60;;;;;;5022027;28;20670;-46
2023/06/05 01:12:59;;;;;;;4.50;3.53;;;24.90;35.60;;;;;;5021486;28;20470;-50
2023/06/05 01:15:31;;;;;;;4.63;4.23;;;24.80;35.60;;;;;;5024161;28;20831;-47
2023/06/05 01:17:58;;;;;;;3.90;3.50;;;24.80;35.70;;;;;;5019874;28;20500;-47
2023/06/05 01:20:33;;;;;;;4.40;3.30;;;24.70;35.90;;;;;;5017467;28;20455;-51
2023/06/05 01:22:58;;;;;;;5.30;3.30;;;24.70;35.80;;;;;;5015975;28;20472;-48
2023/06/05 01:25:25;;;;;;;3.87;3.47;;;24.70;35.80;;;;;;5020976;28;23348;-46
2023/06/05 01:28:16;;;;;;;4.00;3.57;;;24.70;36.00;;;;;;5020852;28;20384;-47
2023/06/05 01:30:52;;;;;;;4.03;3.63;;;24.60;36.10;;;;;;5017452;28;20448;-48
2023/06/05 01:33:26;;;;;;;5.27;3.10;;;24.60;36.10;;;;;;5017573;28;20951;-46
2023/06/05 01:35:53;;;;;;;5.27;3.77;;;24.50;36.30;;;;;;5017224;28;20436;-47
2023/06/05 01:38:20;;;;;;;5.50;2.93;;;24.40;36.50;;;;;;5016906;28;20451;-51
2023/06/05 01:40:47;;;;;;;4.50;4.10;;;24.30;36.70;;;;;;5018543;28;20951;-46
2023/06/05 01:43:13;;;;;;;4.33;3.73;;;24.20;37.00;;;;;;5022371;28;20445;-50
2023/06/05 01:45:42;;;;;;;3.83;3.20;;;24.10;37.10;;;;;;5023467;28;20478;-46
2023/06/05 01:48:10;;;;;;;3.17;2.87;;;24.20;37.10;;;;;;5021441;28;20540;-48
2023/06/05 01:50:37;;;;;;;4.40;3.60;;;24.30;36.90;;;;;;5019927;28;20547;-47
2023/06/05 01:53:04;;;;;;;3.30;3.00;;;24.20;37.10;;;;;;5018678;28;20445;-50
2023/06/05 01:55:30;;;;;;;3.80;3.50;;;24.10;37.30;;;;;;5018449;28;20521;-50
2023/06/05 01:57:56;;;;;;;4.30;3.37;;;24.00;37.50;;;;;;5017220;28;20491;-49
2023/06/05 02:00:21;;;;;;;3.27;2.90;;;24.00;37.40;;;;;;5015596;28;20456;-48
2023/06/05 02:02:48;;;;;;;3.70;3.40;;;23.90;37.40;;;;;;5019585;28;20610;-46
2023/06/05 02:05:14;;;;;;;3.40;3.10;;;24.00;37.20;;;;;;5018907;28;20228;-50
2023/06/05 02:07:41;;;;;;;3.90;3.37;;;24.10;37.10;;;;;;5018311;28;20451;-46
2023/06/05 02:10:08;;;;;;;4.90;3.33;;;24.10;37.10;;;;;;5024956;28;20936;-47
2023/06/05 02:12:37;;;;;;;3.60;3.30;;;24.00;37.20;;;;;;5011882;28;20452;-48
2023/06/05 02:15:03;;;;;;;4.10;3.70;;;23.80;37.50;;;;;;5015217;28;20570;-46
2023/06/05 02:17:29;;;;;;;3.50;3.20;;;23.80;37.80;;;;;;5020916;28;20489;-47
2023/06/05 02:19:55;;;;;;;8.30;3.93;;;23.70;37.60;;;;;;5027612;28;20440;-47
2023/06/05 02:22:23;;;;;;;3.67;3.37;;;23.80;37.80;;;;;;5025901;28;20453;-47
2023/06/05 02:24:49;;;;;;;4.03;3.70;;;23.90;37.50;;;;;;5014305;28;20493;-47
2023/06/05 02:27:16;;;;;;;3.90;3.60;;;23.90;37.40;;;;;;5029877;28;20760;-47
2023/06/05 02:29:41;;;;;;;3.73;3.40;;;23.90;37.60;;;;;;5033861;28;20469;-46
2023/06/05 02:32:07;;;;;;;3.97;3.60;;;23.80;37.80;;;;;;5024031;28;20444;-46
2023/06/05 02:34:33;;;;;;;4.23;3.43;;;23.70;38.00;;;;;;5019744;28;20193;-46
2023/06/05 02:36:59;;;;;;;5.87;3.63;;;23.80;37.80;;;;;;5017649;28;20956;-46
2023/06/05 02:39:25;;;;;;;5.13;3.57;;;23.90;37.60;;;;;;5015048;28;20190;-47
2023/06/05 02:41:51;;;;;;;4.07;3.77;;;24.00;37.50;;;;;;5019615;28;20558;-45
2023/06/05 02:44:17;;;;;;;6.23;4.03;;;24.00;37.10;;;;;;5020740;28;20550;-45
2023/06/05 02:46:42;;;;;;;4.17;3.87;;;23.70;37.00;;;;;;5025847;28;20559;-47
2023/06/05 02:49:08;;;;;;;5.07;4.20;;;23.50;37.50;;;;;;5018809;28;20197;-46
2023/06/05 02:51:33;;;;;;;6.33;3.80;;;23.10;37.80;;;;;;5015759;28;20197;-46
2023/06/05 02:53:59;;;;;;;4.93;4.40;;;22.80;38.30;;;;;;5025005;28;20322;-45
2023/06/05 02:56:27;;;;;;;4.20;3.80;;;22.50;38.90;;;;;;5019563;28;20241;-47
2023/06/05 02:58:53;;;;;;;9.10;5.20;;;22.20;39.40;;;;;;5025838;28;20194;-46
2023/06/05 03:01:21;;;;;;;4.00;3.50;;;22.00;40.30;;;;;;5030365;28;20440;-45
2023/06/05 03:03:48;;;;;;;5.70;4.20;;;21.80;40.10;;;;;;5028052;28;20895;-45
2023/06/05 03:06:17;;;;;;;3.63;3.20;;;21.60;40.40;;;;;;5025353;28;20451;-47
2023/06/05 03:08:43;;;;;;;4.13;3.70;;;21.50;40.70;;;;;;5024813;28;20538;-46
2023/06/05 03:11:08;;;;;;;6.50;3.77;;;21.40;41.20;;;;;;5030129;28;20436;-46
2023/06/05 03:13:34;;;;;;;6.13;4.03;;;21.20;41.30;;;;;;5019178;28;20454;-45
2023/06/05 03:16:03;;;;;;;3.90;3.60;;;21.10;41.50;;;;;;5028260;28;20280;-46
2023/06/05 03:18:29;;;;;;;3.60;3.27;;;21.00;41.80;;;;;;5022385;28;20604;-47
2023/06/05 03:20:55;;;;;;;4.00;3.50;;;20.90;41.90;;;;;;5024658;28;20476;-45
2023/06/05 03:23:27;;;;;;;5.50;3.37;;;20.90;41.90;;;;;;5025083;28;20441;-47
2023/06/05 03:25:53;;;;;;;4.40;3.53;;;20.80;42.00;;;;;;5029115;28;20517;-46
2023/06/05 03:28:20;;;;;;;7.07;3.90;;;20.70;41.90;;;;;;5023629;28;20443;-50
2023/06/05 03:30:46;;;;;;;3.43;3.10;;;20.70;42.10;;;;;;5037143;28;20446;-46
2023/06/05 03:33:13;;;;;;;4.20;3.80;;;20.60;42.30;;;;;;5022366;28;21522;-45
2023/06/05 03:35:40;;;;;;;4.20;3.53;;;20.50;42.70;;;;;;5021341;28;20215;-48
2023/06/05 03:38:05;;;;;;;5.33;3.77;;;20.40;42.80;;;;;;5021413;28;20491;-46
2023/06/05 03:40:31;;;;;;;4.10;3.80;;;20.40;43.00;;;;;;5019635;28;20444;-47
2023/06/05 03:42:57;;;;;;;4.03;3.53;;;20.30;43.10;;;;;;5018510;28;20190;-47
2023/06/05 03:45:23;;;;;;;5.43;4.07;;;20.30;43.20;;;;;;5017710;28;20630;-50
2023/06/05 03:47:48;;;;;;;4.33;3.40;;;20.20;43.30;;;;;;5033426;28;20264;-49
2023/06/05 03:50:17;;;;;;;3.50;3.20;;;20.10;43.60;;;;;;5037404;28;20447;-50
2023/06/05 03:52:43;;;;;;;6.13;3.90;;;20.00;43.80;;;;;;5025070;28;20225;-50
2023/06/05 03:55:09;;;;;;;7.80;4.10;;;19.90;44.00;;;;;;5033545;28;20506;-51
2023/06/05 03:57:37;;;;;;;3.80;3.20;;;19.90;44.10;;;;;;5031274;28;21055;-51
2023/06/05 04:00:09;;;;;;;4.83;3.50;;;19.90;44.30;;;;;;5021919;28;20569;-51
2023/06/05 04:02:36;;;;;;;5.83;3.03;;;19.80;44.40;;;;;;5034260;28;20452;-49
2023/06/05 04:05:03;;;;;;;3.53;2.83;;;19.80;44.40;;;;;;5029125;28;20432;-50
2023/06/05 04:07:29;;;;;;;4.13;3.73;;;19.80;44.40;;;;;;5017434;28;20433;-51
2023/06/05 04:09:55;;;;;;;5.10;3.67;;;19.80;44.30;;;;;;5024682;28;20848;-49
2023/06/05 04:12:21;;;;;;;3.73;3.33;;;19.90;44.30;;;;;;5029474;28;20440;-51
2023/06/05 04:14:46;;;;;;;3.73;3.43;;;19.90;44.30;;;;;;5023929;28;20244;-49
2023/06/05 04:17:13;;;;;;;4.30;3.90;;;19.90;44.20;;;;;;5029130;28;20220;-50
2023/06/05 04:19:39;;;;;;;8.60;3.83;;;19.90;44.20;;;;;;5025408;28;20233;-48
2023/06/05 04:22:05;;;;;;;4.10;3.70;;;19.90;44.10;;;;;;5020659;28;20455;-47
2023/06/05 04:24:31;;;;;;;3.40;3.03;;;19.90;44.10;;;;;;5024485;28;20810;-50
2023/06/05 04:26:57;;;;;;;5.30;3.47;;;19.90;44.10;;;;;;5027148;28;20220;-50
2023/06/05 04:29:23;;;;;;;5.00;4.50;;;19.80;44.10;;;;;;5028855;28;20325;-50
2023/06/05 04:31:49;;;;;;;6.70;3.90;;;19.50;44.80;;;;;;5017035;28;20444;-51
2023/06/05 04:34:14;;;;;;;3.90;3.30;;;19.50;45.00;;;;;;5023730;28;20637;-50
2023/06/05 04:36:40;;;;;;;4.30;3.90;;;19.70;44.60;;;;;;5018882;28;20620;-50
2023/06/05 04:39:14;;;;;;;4.60;4.00;;;19.80;44.30;;;;;;5023654;28;20233;-48
2023/06/05 04:41:44;;;;;;;4.40;4.00;;;19.90;44.10;;;;;;5025550;28;20452;-49
2023/06/05 04:44:12;;;;;;;5.03;4.40;;;19.90;44.10;;;;;;5021631;28;20840;-51
2023/06/05 04:46:39;;;;;;;4.03;3.70;;;20.00;44.10;;;;;;5020173;28;20440;-49
2023/06/05 04:49:07;;;;;;;6.83;4.13;;;20.00;44.20;;;;;;5025850;28;20967;-49
2023/06/05 04:51:33;;;;;;;3.97;3.50;;;20.10;44.20;;;;;;5025155;28;20453;-49
2023/06/05 04:53:59;;;;;;;5.37;3.40;;;20.10;44.20;;;;;;5018509;28;20437;-50
2023/06/05 04:56:25;;;;;;;4.17;3.77;;;20.10;44.20;;;;;;5025460;28;20253;-48
2023/06/05 04:58:52;;;;;;;5.90;3.87;;;20.20;44.20;;;;;;5012080;28;20439;-50
2023/06/05 05:01:17;;;;;;;5.00;3.70;;;20.30;44.20;;;;;;5016755;28;20532;-51
2023/06/05 05:03:44;;;;;;;8.43;3.80;;;20.30;44.10;;;;;;5018534;28;20551;-49
2023/06/05 05:06:10;;;;;;;7.07;3.60;;;20.30;45.40;;;;;;5027908;28;20641;-46
2023/06/05 05:08:36;;;;;;;4.27;3.10;;;20.60;45.80;;;;;;5030910;28;20446;-48
2023/06/05 05:11:02;;;;;;;5.87;3.40;;;20.80;45.10;;;;;;5019925;28;20189;-50
2023/06/05 05:13:27;;;;;;;3.60;3.30;;;21.10;44.60;;;;;;5025507;28;20432;-49
2023/06/05 05:15:54;;;;;;;4.70;3.50;;;21.40;44.20;;;;;;5025761;28;20447;-45
2023/06/05 05:18:19;;;;;;;5.70;4.03;;;21.70;43.30;;;;;;5028046;28;20216;-49
2023/06/05 05:20:46;;;;;;;7.00;3.80;;;21.90;43.10;;;;;;5025025;28;20447;-47
2023/06/05 05:23:11;;;;;;;4.03;3.63;;;22.20;42.80;;;;;;5023383;28;20201;-47
2023/06/05 05:25:40;;;;;;;9.00;3.50;;;22.50;42.10;;;;;;5021690;28;20446;-46
2023/06/05 05:28:06;;;;;;;4.70;3.50;;;22.70;42.00;;;;;;5019557;28;20193;-46
2023/06/05 05:30:32;;;;;;;4.53;4.00;;;22.80;40.80;;;;;;5020816;28;20444;-47
2023/06/05 05:32:58;;;;;;;6.43;3.80;;;22.90;40.50;;;;;;5037581;28;20446;-49
2023/06/05 05:35:24;;;;;;;6.17;4.40;;;23.20;40.20;;;;;;5026744;28;20440;-48
2023/06/05 05:37:49;;;;;;;4.40;4.00;;;23.40;39.60;;;;;;5029224;28;20240;-48
2023/06/05 05:40:15;;;;;;;5.13;3.80;;;23.50;39.20;;;;;;5031385;28;20197;-48
2023/06/05 05:42:41;;;;;;;4.27;3.63;;;23.50;38.90;;;;;;5031368;28;20228;-46
2023/06/05 05:45:08;;;;;;;7.30;4.20;;;23.60;38.80;;;;;;5026530;28;20200;-50
2023/06/05 05:47:34;;;;;;;4.77;3.10;;;23.60;38.90;;;;;;5027007;28;20452;-50
2023/06/05 05:49:59;;;;;;;4.40;3.50;;;23.60;38.80;;;;;;5031259;28;20758;-48
2023/06/05 05:52:25;;;;;;;4.90;3.63;;;23.60;38.60;;;;;;5031336;28;20254;-49
2023/06/05 05:54:51;;;;;;;3.77;3.20;;;23.80;38.30;;;;;;5022965;28;20278;-48
2023/06/05 05:57:17;;;;;;;4.80;4.30;;;23.80;38.20;;;;;;5024102;28;20316;-48
2023/06/05 05:59:44;;;;;;;5.90;3.90;;;23.90;38.00;;;;;;5027249;28;20552;-46
2023/06/05 06:02:11;;;;;;;8.43;3.80;;;23.80;37.90;;;;;;5020209;28;20193;-48
2023/06/05 06:04:37;;;;;;;5.33;4.20;;;23.80;38.10;;;;;;5025836;28;20951;-48
2023/06/05 06:07:05;;;;;;;4.40;4.00;;;23.90;37.70;;;;;;5023413;28;20474;-50
2023/06/05 06:09:31;;;;;;;5.23;4.70;;;23.90;37.90;;;;;;5027902;28;20860;-49
2023/06/05 06:11:57;;;;;;;9.13;4.37;;;23.80;38.20;;;;;;5030017;28;20432;-52
2023/06/05 06:14:23;;;;;;;4.60;3.77;;;23.70;38.90;;;;;;5019260;28;20428;-46
2023/06/05 06:16:50;;;;;;;6.40;4.40;;;23.70;38.60;;;;;;5031078;28;20577;-48
2023/06/05 06:19:16;;;;;;;4.30;3.90;;;23.60;38.50;;;;;;5031549;28;20204;-49
2023/06/05 06:21:42;;;;;;;6.33;4.03;;;23.50;38.60;;;;;;5029638;28;20455;-47
2023/06/05 06:24:08;;;;;;;4.97;3.60;;;23.50;38.70;;;;;;5027453;28;20842;-50
2023/06/05 06:26:34;;;;;;;5.10;4.23;;;23.50;38.90;;;;;;5031037;28;20503;-50
2023/06/05 06:28:59;;;;;;;4.30;3.57;;;23.50;37.60;;;;;;5032953;28;20431;-47
2023/06/05 06:31:25;;;;;;;3.70;3.33;;;23.50;37.40;;;;;;5035306;28;20197;-50
2023/06/05 06:33:51;;;;;;;7.43;3.50;;;23.30;36.10;;;;;;5033068;28;20185;-50
2023/06/05 06:36:17;;;;;;;4.13;3.00;;;23.20;35.90;;;;;;5027730;28;20731;-51
2023/06/05 06:38:43;;;;;;;7.77;3.93;;;23.20;36.20;;;;;;5035138;28;20208;-47
2023/06/05 06:41:09;;;;;;;43.87;6.70;;;23.30;36.20;;;;;;5035250;28;20432;-49
2023/06/05 06:43:34;;;;;;;94.93;13.20;;;23.50;36.80;;;;;;5034950;28;20284;-50
2023/06/05 06:46:01;;;;;;;89.43;12.37;;;23.60;36.90;;;;;;5032300;28;20573;-51
2023/06/05 06:48:27;;;;;;;9.23;4.10;;;23.80;36.90;;;;;;5033441;28;20238;-47
2023/06/05 06:50:52;;;;;;;5.43;4.43;;;24.00;37.30;;;;;;5035283;28;20428;-46
2023/06/05 06:53:18;;;;;;;4.43;3.67;;;24.10;37.70;;;;;;5035038;28;20189;-51
2023/06/05 06:55:44;;;;;;;3.60;3.30;;;24.20;37.80;;;;;;5028241;28;20241;-48
2023/06/05 06:58:10;;;;;;;4.30;3.70;;;24.30;38.00;;;;;;5023304;28;20240;-47
2023/06/05 07:00:35;;;;;;;4.93;3.40;;;24.50;38.00;;;;;;5034751;28;20570;-47
2023/06/05 07:03:02;;;;;;;6.63;4.10;;;24.60;38.20;;;;;;5035190;28;20532;-50
2023/06/05 07:05:27;;;;;;;9.67;4.30;;;24.70;37.80;;;;;;5032134;28;20224;-47
2023/06/05 07:07:53;;;;;;;48.87;9.03;;;24.70;38.30;;;;;;5031763;28;20915;-48
2023/06/05 07:10:19;;;;;;;7.50;3.67;;;24.90;38.20;;;;;;5034585;28;20649;-48
2023/06/05 07:12:45;;;;;;;6.50;3.83;;;25.10;38.10;;;;;;5034745;28;20216;-47
2023/06/05 07:15:10;;;;;;;4.93;3.87;;;25.20;38.00;;;;;;5032857;28;20412;-47
2023/06/05 07:17:36;;;;;;;4.10;3.70;;;25.40;37.60;;;;;;5034299;28;20231;-50
2023/06/05 07:20:04;;;;;;;4.40;3.77;;;25.60;37.40;;;;;;5029678;28;20193;-48
2023/06/05 07:22:30;;;;;;;5.27;3.67;;;25.60;37.30;;;;;;5031698;28;20203;-48
2023/06/05 07:24:56;;;;;;;5.40;4.07;;;25.60;37.90;;;;;;5034349;28;20793;-50
2023/06/05 07:27:22;;;;;;;4.70;3.77;;;25.70;37.80;;;;;;5034085;28;20444;-48
2023/06/05 07:29:48;;;;;;;4.20;3.70;;;25.90;37.30;;;;;;5034316;28;20181;-51
2023/06/05 07:32:14;;;;;;;4.83;3.53;;;25.90;37.10;;;;;;5032337;28;20443;-50
2023/06/05 07:34:40;;;;;;;4.53;3.90;;;26.10;36.90;;;;;;5034187;28;20283;-47
2023/06/05 07:37:07;;;;;;;10.77;4.30;;;26.30;36.60;;;;;;5027214;28;21088;-49
2023/06/05 07:39:33;;;;;;;6.13;3.90;;;26.40;36.10;;;;;;5034059;28;20474;-46
2023/06/05 07:41:59;;;;;;;4.17;3.77;;;26.50;36.40;;;;;;5030993;28;20919;-47
2023/06/05 07:44:25;;;;;;;4.80;3.97;;;26.60;36.40;;;;;;5033338;28;20451;-51
2023/06/05 07:46:51;;;;;;;11.53;5.00;;;26.80;35.80;;;;;;5033921;28;20193;-52
2023/06/05 07:49:17;;;;;;;4.00;3.60;;;26.90;35.60;;;;;;5031808;28;20189;-47
2023/06/05 07:51:46;;;;;;;4.60;3.93;;;27.10;35.50;;;;;;5031330;28;21009;-49
2023/06/05 07:54:12;;;;;;;4.50;4.07;;;27.20;35.30;;;;;;5027689;28;20534;-49
2023/06/05 07:56:39;;;;;;;5.17;4.50;;;27.30;35.10;;;;;;5031636;28;20479;-50
2023/06/05 07:59:06;;;;;;;4.63;3.67;;;27.00;35.40;;;;;;5023510;28;20463;-50
2023/06/05 08:01:36;;;;;;;4.53;3.70;;;27.00;36.10;;;;;;5020751;28;20452;-51
2023/06/05 08:04:05;;;;;;;6.07;3.97;;;27.20;36.20;;;;;;5027974;28;20531;-49
2023/06/05 08:06:31;;;;;;;4.70;4.20;;;27.40;35.80;;;;;;5024070;28;20819;-49
2023/06/05 08:09:01;;;;;;;4.40;3.97;;;27.70;36.20;;;;;;5023379;28;20466;-49
2023/06/05 08:11:28;;;;;;;4.40;4.00;;;27.80;36.10;;;;;;5025560;28;20460;-51
2023/06/05 08:13:54;;;;;;;5.60;4.30;;;27.90;35.80;;;;;;5018097;28;20498;-47
2023/06/05 08:16:20;;;;;;;3.87;3.47;;;28.00;35.90;;;;;;5029908;28;20585;-48
2023/06/05 08:18:46;;;;;;;6.90;4.30;;;28.10;35.40;;;;;;5026983;28;20855;-52
2023/06/05 08:21:12;;;;;;;4.67;4.30;;;28.30;34.80;;;;;;5020952;28;20669;-47
2023/06/05 08:23:38;;;;;;;6.10;3.60;;;28.40;35.10;;;;;;5026386;28;20785;-47
2023/06/05 08:26:10;;;;;;;5.80;3.70;;;28.50;34.20;;;;;;5018915;28;20186;-49
2023/06/05 08:28:39;;;;;;;6.90;3.80;;;28.50;34.50;;;;;;5015650;28;20193;-52
2023/06/05 08:31:05;;;;;;;4.27;3.90;;;28.60;34.60;;;;;;5016798;28;20441;-51
2023/06/05 08:33:33;;;;;;;6.60;4.17;;;28.50;35.00;;;;;;5015945;28;20484;-51
2023/06/05 08:35:58;;;;;;;8.27;4.30;;;28.60;35.20;;;;;;5022820;28;20444;-49
2023/06/05 08:38:24;;;;;;;4.27;3.90;;;28.60;35.00;;;;;;5021299;28;20451;-51
2023/06/05 08:40:57;;;;;;;5.40;4.30;;;28.60;35.50;;;;;;5028777;28;20197;-49
2023/06/05 08:43:22;;;;;;;4.70;4.13;;;28.60;35.10;;;;;;5025827;28;20189;-49
2023/06/05 08:45:51;;;;;;;5.00;4.10;;;28.70;34.50;;;;;;5023005;28;21013;-50
2023/06/05 08:48:20;;;;;;;3.93;3.63;;;28.60;34.50;;;;;;5025662;28;20280;-49
2023/06/05 08:50:47;;;;;;;5.60;4.17;;;28.60;34.90;;;;;;5018393;28;20453;-53
2023/06/05 08:53:16;;;;;;;4.57;3.90;;;28.70;35.10;;;;;;5023401;28;20793;-51
2023/06/05 08:55:45;;;;;;;5.93;5.03;;;28.70;34.90;;;;;;5023022;28;21042;-48
2023/06/05 08:58:13;;;;;;;7.93;5.20;;;28.80;34.90;;;;;;5020630;28;20498;-49
2023/06/05 09:00:40;;;;;;;9.00;4.40;;;28.90;35.10;;;;;;5030975;28;20447;-49
2023/06/05 09:03:06;;;;;;;8.57;4.67;;;29.00;35.00;;;;;;5025122;28;20482;-49
2023/06/05 09:05:32;;;;;;;5.13;4.23;;;29.20;34.80;;;;;;5020068;28;20467;-48
2023/06/05 09:08:01;;;;;;;6.13;4.73;;;29.40;34.70;;;;;;5026781;28;20653;-49
2023/06/05 09:10:28;;;;;;;4.90;4.50;;;29.60;34.20;;;;;;5030454;28;20444;-49
2023/06/05 09:12:58;;;;;;;5.90;4.57;;;29.70;34.60;;;;;;5041124;28;20476;-49
2023/06/05 09:15:32;;;;;;;4.60;4.13;;;29.80;34.80;;;;;;5029151;28;20440;-49
2023/06/05 09:18:14;;;;;;;4.93;4.40;;;29.90;34.70;;;;;;5032154;28;20525;-49
2023/06/05 09:20:42;;;;;;;4.37;3.97;;;30.10;35.40;;;;;;5031050;28;20448;-49
2023/06/05 09:23:27;;;;;;;4.80;4.47;;;30.20;36.20;;;;;;5028305;28;20454;-53
2023/06/05 09:25:56;;;;;;;11.37;4.80;;;30.40;35.60;;;;;;5022253;28;20503;-51
2023/06/05 09:28:22;;;;;;;5.10;4.60;;;30.60;35.40;;;;;;5031157;28;20467;-48
2023/06/05 09:31:02;;;;;;;5.10;4.70;;;30.70;33.80;;;;;;5026590;28;20883;-50
2023/06/05 09:33:29;;;;;;;6.67;5.00;;;31.00;34.30;;;;;;5028658;28;20513;-49
2023/06/05 09:36:09;;;;;;;5.83;5.00;;;31.20;34.50;;;;;;5028104;28;20474;-52
2023/06/05 09:38:36;;;;;;;4.90;4.30;;;31.30;33.40;;;;;;5023664;28;20452;-51
2023/06/05 09:41:03;;;;;;;5.67;5.27;;;31.40;33.30;;;;;;5015972;28;20196;-50
2023/06/05 09:43:29;;;;;;;5.33;4.77;;;31.40;32.00;;;;;;5025837;28;20446;-50
2023/06/05 09:45:54;;;;;;;5.13;4.73;;;31.30;31.30;;;;;;5019388;28;20448;-49
2023/06/05 09:48:20;;;;;;;4.83;4.43;;;31.50;31.50;;;;;;5019587;28;20236;-53
2023/06/05 09:50:45;;;;;;;5.00;4.60;;;31.50;32.50;;;;;;5037363;28;20319;-52
2023/06/05 09:53:15;;;;;;;6.50;4.67;;;31.50;31.30;;;;;;5018528;28;20278;-50
2023/06/05 09:55:41;;;;;;;4.80;4.30;;;31.50;30.80;;;;;;5014556;28;20271;-51
2023/06/05 09:58:10;;;;;;;4.70;4.30;;;31.20;31.00;;;;;;5020722;28;20983;-53
2023/06/05 10:00:38;;;;;;;5.20;4.20;;;31.20;31.10;;;;;;5020573;28;20221;-49
2023/06/05 10:03:10;;;;;;;4.17;3.83;;;31.20;30.60;;;;;;5034707;28;20436;-51
2023/06/05 10:05:38;;;;;;;6.50;3.87;;;31.30;29.60;;;;;;5030717;28;20439;-49
2023/06/05 10:08:05;;;;;;;3.70;3.40;;;31.60;29.60;;;;;;5015076;28;20459;-50
2023/06/05 10:10:32;;;;;;;4.97;3.90;;;31.80;29.10;;;;;;5028953;28;20793;-50
2023/06/05 10:12:58;;;;;;;4.23;3.63;;;32.00;28.50;;;;;;5023412;28;20963;-50
2023/06/05 10:15:25;;;;;;;4.40;4.00;;;32.20;28.80;;;;;;5029988;28;20467;-53
2023/06/05 10:17:51;;;;;;;4.13;3.73;;;32.10;26.90;;;;;;5030968;28;20228;-51
2023/06/05 10:20:16;;;;;;;4.30;3.90;;;32.30;26.80;;;;;;5029763;28;20452;-52
2023/06/05 10:22:44;;;;;;;3.97;3.67;;;32.50;27.40;;;;;;5029311;28;20189;-50
2023/06/05 10:25:12;;;;;;;4.30;3.90;;;32.50;27.10;;;;;;5017330;28;20202;-53
2023/06/05 10:27:47;;;;;;;4.03;3.70;;;32.60;26.40;;;;;;5024667;28;20456;-50
2023/06/05 10:30:49;;;;;;;4.53;3.77;;;32.80;27.20;;;;;;5019369;28;20834;-50
2023/06/05 10:33:51;;;;;;;3.80;3.50;;;33.00;26.20;;;;;;5026724;28;20483;-50
2023/06/05 10:36:54;;;;;;;4.00;3.70;;;33.20;27.10;;;;;;5035551;28;20512;-49
2023/06/05 10:39:23;;;;;;;4.73;4.33;;;33.40;26.40;;;;;;5031238;28;20468;-50
2023/06/05 10:41:50;;;;;;;4.90;4.40;;;33.40;26.00;;;;;;5025244;28;20444;-51
2023/06/05 10:44:16;;;;;;;5.17;4.00;;;33.40;25.30;;;;;;5014290;28;20453;-51
2023/06/05 10:46:42;;;;;;;3.50;3.20;;;33.30;25.00;;;;;;5022717;28;20837;-53
2023/06/05 10:49:19;;;;;;;4.23;3.83;;;33.30;26.30;;;;;;5025954;28;20190;-49
2023/06/05 10:51:47;;;;;;;4.97;4.40;;;33.20;24.90;;;;;;5020176;28;20585;-49
2023/06/05 10:54:38;;;;;;;4.03;3.73;;;33.30;25.30;;;;;;5025164;28;20444;-51
2023/06/05 10:57:06;;;;;;;5.87;3.93;;;33.30;25.90;;;;;;5025423;28;20982;-50
2023/06/05 10:59:37;;;;;;;4.97;4.33;;;33.50;25.60;;;;;;5020045;28;20443;-52
2023/06/05 11:02:14;;;;;;;5.23;4.83;;;33.70;25.50;;;;;;5031114;28;20437;-50
2023/06/05 11:04:49;;;;;;;4.37;4.07;;;33.90;25.30;;;;;;5027238;28;20455;-49
2023/06/05 11:07:18;;;;;;;4.27;3.87;;;34.00;24.20;;;;;;5030580;28;20434;-50
2023/06/05 11:10:05;;;;;;;7.93;3.93;;;34.10;24.20;;;;;;5034697;28;20431;-50
2023/06/05 11:12:40;;;;;;;3.90;3.50;;;34.00;24.40;;;;;;5030175;28;20440;-52
2023/06/05 11:15:12;;;;;;;6.70;4.13;;;34.10;24.60;;;;;;5026069;28;21040;-53
2023/06/05 11:17:39;;;;;;;4.30;4.00;;;34.30;25.20;;;;;;5015196;28;20491;-51
2023/06/05 11:20:07;;;;;;;5.27;4.43;;;34.50;24.20;;;;;;5029296;28;20470;-51
2023/06/05 11:22:33;;;;;;;6.10;4.10;;;34.60;23.60;;;;;;5025632;28;20448;-52
2023/06/05 11:25:16;;;;;;;4.00;3.70;;;34.60;23.50;;;;;;5031935;28;20439;-50
2023/06/05 11:27:44;;;;;;;4.20;3.90;;;34.50;23.10;;;;;;5028351;28;20200;-53
2023/06/05 11:30:32;;;;;;;4.83;4.43;;;34.60;23.20;;;;;;5024131;28;20542;-52
2023/06/05 11:33:08;;;;;;;4.43;4.03;;;34.60;23.10;;;;;;5029962;28;20857;-50
2023/06/05 11:35:34;;;;;;;5.93;3.83;;;34.40;24.00;;;;;;5024456;28;20462;-50
2023/06/05 11:38:12;;;;;;;4.00;3.60;;;34.50;24.70;;;;;;5034073;28;20486;-49
2023/06/05 11:40:39;;;;;;;5.27;3.77;;;34.70;23.60;;;;;;5020221;28;20451;-54
2023/06/05 11:43:06;;;;;;;4.93;4.43;;;34.80;23.60;;;;;;5031303;28;20840;-50
2023/06/05 11:45:37;;;;;;;5.57;4.03;;;35.10;23.60;;;;;;5029579;28;20448;-53
2023/06/05 11:48:12;;;;;;;4.80;4.50;;;35.20;24.40;;;;;;5031346;28;20808;-50
2023/06/05 11:50:51;;;;;;;4.17;3.77;;;35.20;23.40;;;;;;5029183;28;20550;-50
2023/06/05 11:53:17;;;;;;;4.10;3.80;;;35.10;23.00;;;;;;5032574;28;20931;-49
2023/06/05 11:55:53;;;;;;;4.00;3.70;;;35.10;22.60;;;;;;5031314;28;20546;-52
2023/06/05 11:58:23;;;;;;;5.53;4.60;;;35.10;23.10;;;;;;5020047;28;20231;-51
2023/06/05 12:00:49;;;;;;;4.27;3.97;;;35.00;23.10;;;;;;5031890;28;20442;-50
2023/06/05 12:03:21;;;;;;;8.20;5.23;;;34.90;24.10;;;;;;5029007;28;20462;-53
2023/06/05 12:05:48;;;;;;;5.67;4.63;;;34.80;23.80;;;;;;5023103;28;20883;-50
2023/06/05 12:08:27;;;;;;;4.17;3.83;;;34.70;23.10;;;;;;5018691;28;20523;-53
2023/06/05 12:10:53;;;;;;;4.43;3.70;;;34.90;23.80;;;;;;5021313;28;20436;-52
2023/06/05 12:13:19;;;;;;;4.23;3.90;;;35.20;23.10;;;;;;5027984;28;21010;-50
2023/06/05 12:15:58;;;;;;;7.07;4.83;;;35.20;23.80;;;;;;5031353;28;20744;-52
2023/06/05 12:18:34;;;;;;;4.50;4.20;;;35.30;23.70;;;;;;5039002;28;20487;-53
2023/06/05 12:21:00;;;;;;;5.00;4.40;;;35.60;23.20;;;;;;5021824;28;20466;-49
2023/06/05 12:23:28;;;;;;;5.30;4.77;;;35.70;23.10;;;;;;5021374;28;20445;-50
2023/06/05 12:26:03;;;;;;;4.83;4.43;;;35.80;22.60;;;;;;5027959;28;20451;-53
2023/06/05 12:28:32;;;;;;;5.53;4.90;;;35.90;22.50;;;;;;5018455;28;20946;-53
2023/06/05 12:30:58;;;;;;;5.33;4.83;;;36.00;22.80;;;;;;5018641;28;20575;-52
2023/06/05 12:33:24;;;;;;;5.47;4.40;;;36.20;22.00;;;;;;5022796;28;20813;-51
2023/06/05 12:36:06;;;;;;;4.97;4.47;;;36.20;21.80;;;;;;5018719;28;20440;-50
2023/06/05 12:38:41;;;;;;;4.80;4.40;;;36.20;21.40;;;;;;5024845;28;20458;-50
2023/06/05 12:41:07;;;;;;;4.67;4.23;;;36.10;22.30;;;;;;5018651;28;20860;-49
2023/06/05 12:43:33;;;;;;;4.90;4.53;;;36.10;21.90;;;;;;5027747;28;20539;-50
2023/06/05 12:45:59;;;;;;;5.23;4.47;;;36.20;22.20;;;;;;5013325;28;20479;-49
2023/06/05 12:48:25;;;;;;;4.90;4.50;;;36.30;21.40;;;;;;5023368;28;20472;-50
2023/06/05 12:50:51;;;;;;;4.90;4.50;;;36.50;21.30;;;;;;5023696;28;20194;-52